createdAt,value
2023-07-18T00:02:22.153Z,9.55
2023-07-18T00:04:50.126Z,9.00
2023-07-18T00:07:17.950Z,12.43
2023-07-18T00:09:46.296Z,8.88
2023-07-18T00:12:14.175Z,10.73
2023-07-18T00:14:42.273Z,7.45
2023-07-18T00:17:10.187Z,9.75
2023-07-18T00:19:38.760Z,10.88
2023-07-18T00:22:08.854Z,9.02
2023-07-18T00:24:36.684Z,9.27
2023-07-18T00:27:05.224Z,10.63
2023-07-18T00:29:33.053Z,9.02
2023-07-18T00:32:01.093Z,10.73
2023-07-18T00:34:28.994Z,7.68
2023-07-18T00:36:56.858Z,10.15
2023-07-18T00:39:24.750Z,10.77
2023-07-18T00:41:53.368Z,8.02
2023-07-18T00:44:22.863Z,7.80
2023-07-18T00:46:52.535Z,8.95
2023-07-18T00:49:22.423Z,9.07
2023-07-18T00:51:50.577Z,8.90
2023-07-18T00:54:18.906Z,10.80
2023-07-18T00:56:46.809Z,9.20
2023-07-18T00:59:17.585Z,10.07
2023-07-18T01:01:46.271Z,9.63
2023-07-18T01:04:14.968Z,10.90
2023-07-18T01:06:43.218Z,9.60
2023-07-18T01:09:11.043Z,8.48
2023-07-18T01:11:38.878Z,8.88
2023-07-18T01:14:07.030Z,7.88
2023-07-18T01:16:34.766Z,13.60
2023-07-18T01:19:02.522Z,6.60
2023-07-18T01:21:30.318Z,8.77
2023-07-18T01:23:58.110Z,7.13
2023-07-18T01:26:25.987Z,9.15
2023-07-18T01:28:54.237Z,8.63
2023-07-18T01:31:22.113Z,7.70
2023-07-18T01:33:50.013Z,11.27
2023-07-18T01:36:17.793Z,10.30
2023-07-18T01:38:45.682Z,9.50
2023-07-18T01:41:13.519Z,6.32
2023-07-18T01:43:41.415Z,8.15
2023-07-18T01:46:09.641Z,7.72
2023-07-18T01:48:37.701Z,9.05
2023-07-18T01:51:08.833Z,10.90
2023-07-18T01:53:36.813Z,15.20
2023-07-18T01:56:04.730Z,18.77
2023-07-18T01:58:32.581Z,9.73
2023-07-18T02:01:04.164Z,8.13
2023-07-18T02:03:32.941Z,7.53
2023-07-18T02:06:00.837Z,9.55
2023-07-18T02:08:28.632Z,10.70
2023-07-18T02:10:56.445Z,9.85
2023-07-18T02:13:24.229Z,9.63
2023-07-18T02:15:52.069Z,8.43
2023-07-18T02:18:20.105Z,9.60
2023-07-18T02:20:47.886Z,9.70
2023-07-18T02:23:15.926Z,8.95
2023-07-18T02:25:43.775Z,7.40
2023-07-18T02:28:13.772Z,9.25
2023-07-18T02:30:43.565Z,6.95
2023-07-18T02:33:12.128Z,8.48
2023-07-18T02:35:40.441Z,11.23
2023-07-18T02:38:08.270Z,9.40
2023-07-18T02:40:36.052Z,8.45
2023-07-18T02:43:05.835Z,10.73
2023-07-18T02:45:33.646Z,10.50
2023-07-18T02:48:01.537Z,8.52
2023-07-18T02:50:29.505Z,9.02
2023-07-18T02:52:59.549Z,8.40
2023-07-18T02:55:28.934Z,8.90
2023-07-18T02:57:56.887Z,8.15
2023-07-18T03:00:27.264Z,7.13
2023-07-18T03:02:55.481Z,7.55
2023-07-18T03:05:23.870Z,8.15
2023-07-18T03:07:55.655Z,9.02
2023-07-18T03:10:24.545Z,8.23
2023-07-18T03:12:52.415Z,7.50
2023-07-18T03:15:22.506Z,8.35
2023-07-18T03:17:50.491Z,7.07
2023-07-18T03:20:18.571Z,8.63
2023-07-18T03:22:47.534Z,8.90
2023-07-18T03:25:16.400Z,8.68
2023-07-18T03:27:46.380Z,8.40
2023-07-18T03:30:14.360Z,11.55
2023-07-18T03:32:43.047Z,6.75
2023-07-18T03:35:12.223Z,11.63
2023-07-18T03:37:40.170Z,6.65
2023-07-18T03:40:08.523Z,8.73
2023-07-18T03:42:36.550Z,7.50
2023-07-18T03:45:06.229Z,7.55
2023-07-18T03:47:34.055Z,9.68
2023-07-18T03:50:01.889Z,9.13
2023-07-18T03:52:30.088Z,5.93
2023-07-18T03:54:57.860Z,8.90
2023-07-18T03:57:28.348Z,8.15
2023-07-18T03:59:56.121Z,8.05
2023-07-18T04:02:23.952Z,7.03
2023-07-18T04:04:51.969Z,8.27
2023-07-18T04:07:21.004Z,7.97
2023-07-18T04:09:48.837Z,7.88
2023-07-18T04:12:17.937Z,9.18
2023-07-18T04:14:45.797Z,8.00
2023-07-18T04:17:13.584Z,6.65
2023-07-18T04:19:41.502Z,16.02
2023-07-18T04:22:09.314Z,7.20
2023-07-18T04:24:37.150Z,6.85
2023-07-18T04:27:05.288Z,6.90
2023-07-18T04:29:33.207Z,8.98
2023-07-18T04:32:01.020Z,6.13
2023-07-18T04:34:28.833Z,9.07
2023-07-18T04:36:56.572Z,7.35
2023-07-18T04:39:24.393Z,6.88
2023-07-18T04:41:55.578Z,6.82
2023-07-18T04:44:24.674Z,5.03
2023-07-18T04:46:55.332Z,7.13
2023-07-18T04:49:25.997Z,7.72
2023-07-18T04:51:54.055Z,7.93
2023-07-18T04:54:21.858Z,8.88
2023-07-18T04:56:49.996Z,8.05
2023-07-18T04:59:17.778Z,6.90
2023-07-18T05:01:45.760Z,9.25
2023-07-18T05:04:13.616Z,6.00
2023-07-18T05:06:41.590Z,5.75
2023-07-18T05:09:09.497Z,6.82
2023-07-18T05:11:37.373Z,8.77
2023-07-18T05:14:05.298Z,7.32
2023-07-18T05:16:33.176Z,6.68
2023-07-18T05:19:01.101Z,7.78
2023-07-18T05:21:29.271Z,8.27
2023-07-18T05:23:57.727Z,6.93
2023-07-18T05:26:26.062Z,8.85
2023-07-18T05:28:54.756Z,8.25
2023-07-18T05:31:23.217Z,7.18
2023-07-18T05:33:52.270Z,10.38
2023-07-18T05:36:20.102Z,7.18
2023-07-18T05:38:48.032Z,8.50
2023-07-18T05:41:16.393Z,8.40
2023-07-18T05:43:44.528Z,7.88
2023-07-18T05:46:12.905Z,7.32
2023-07-18T05:48:40.823Z,6.63
2023-07-18T05:51:09.569Z,5.05
2023-07-18T05:53:37.978Z,7.80
2023-07-18T05:56:06.200Z,16.27
2023-07-18T05:58:34.088Z,8.10
2023-07-18T06:01:01.920Z,5.85
2023-07-18T06:03:29.915Z,5.68
2023-07-18T06:05:57.955Z,6.53
2023-07-18T06:08:25.837Z,6.78
2023-07-18T06:11:00.057Z,6.10
2023-07-18T06:13:28.088Z,8.32
2023-07-18T06:15:55.962Z,6.63
2023-07-18T06:18:23.963Z,4.88
2023-07-18T06:20:52.073Z,7.50
2023-07-18T06:23:20.017Z,8.50
2023-07-18T06:25:48.200Z,9.45
2023-07-18T06:28:16.010Z,7.95
2023-07-18T06:30:43.864Z,6.95
2023-07-18T06:33:11.798Z,6.82
2023-07-18T06:35:39.756Z,6.68
2023-07-18T06:38:07.556Z,10.93
2023-07-18T06:40:35.320Z,8.68
2023-07-18T06:43:03.075Z,5.90
2023-07-18T06:45:33.002Z,6.63
2023-07-18T06:48:00.903Z,7.90
2023-07-18T06:50:28.774Z,9.43
2023-07-18T06:52:56.550Z,10.02
2023-07-18T06:55:24.374Z,5.72
2023-07-18T06:57:52.235Z,10.07
2023-07-18T07:00:21.627Z,5.20
2023-07-18T07:02:49.507Z,6.28
2023-07-18T07:05:17.380Z,7.05
2023-07-18T07:07:45.694Z,13.30
2023-07-18T07:10:13.572Z,10.27
2023-07-18T07:12:41.767Z,10.15
2023-07-18T07:15:10.361Z,5.88
2023-07-18T07:17:38.363Z,11.30
2023-07-18T07:20:08.018Z,24.33
2023-07-18T07:22:35.941Z,22.30
2023-07-18T07:25:04.233Z,29.60
2023-07-18T07:27:32.048Z,29.63
2023-07-18T07:29:59.849Z,11.80
2023-07-18T07:32:28.096Z,18.23
2023-07-18T07:34:55.955Z,9.23
2023-07-18T07:37:23.735Z,17.17
2023-07-18T07:39:51.507Z,10.43
2023-07-18T07:42:19.434Z,11.70
2023-07-18T07:44:47.391Z,12.35
2023-07-18T07:47:15.174Z,8.23
2023-07-18T07:49:42.929Z,11.45
2023-07-18T07:52:10.864Z,16.90
2023-07-18T07:54:38.717Z,12.25
2023-07-18T07:57:06.933Z,13.93
2023-07-18T07:59:34.734Z,13.60
2023-07-18T08:02:02.808Z,8.95
2023-07-18T08:04:30.826Z,14.55
2023-07-18T08:06:58.735Z,6.70
2023-07-18T08:09:26.564Z,5.30
2023-07-18T08:11:54.363Z,10.90
2023-07-18T08:14:23.184Z,8.18
2023-07-18T08:16:51.209Z,12.45
2023-07-18T08:19:19.069Z,4.60
2023-07-18T08:21:47.028Z,6.22
2023-07-18T08:24:14.807Z,6.97
2023-07-18T08:26:42.921Z,6.03
2023-07-18T08:29:11.054Z,7.15
2023-07-18T08:31:39.243Z,4.35
2023-07-18T08:34:07.051Z,6.00
2023-07-18T08:36:37.796Z,5.25
2023-07-18T08:39:11.946Z,4.32
2023-07-18T08:41:45.266Z,6.50
2023-07-18T08:44:15.136Z,5.40
2023-07-18T08:46:44.344Z,5.47
2023-07-18T08:49:15.863Z,4.63
2023-07-18T08:51:47.200Z,4.53
2023-07-18T08:54:15.088Z,4.88
2023-07-18T08:56:45.098Z,4.60
2023-07-18T08:59:14.205Z,5.10
2023-07-18T09:01:49.612Z,3.30
2023-07-18T09:04:18.069Z,2.75
2023-07-18T09:06:50.831Z,5.82
2023-07-18T09:09:22.239Z,5.03
2023-07-18T09:11:56.820Z,2.88
2023-07-18T09:14:29.126Z,4.15
2023-07-18T09:16:58.028Z,3.03
2023-07-18T09:19:44.667Z,1.80
2023-07-18T09:22:13.716Z,2.67
2023-07-18T09:24:43.343Z,3.05
2023-07-18T09:27:21.347Z,4.53
2023-07-18T09:29:50.159Z,3.00
2023-07-18T09:32:19.495Z,2.25
2023-07-18T09:34:55.124Z,1.45
2023-07-18T09:37:23.109Z,2.17
2023-07-18T09:39:51.294Z,3.75
2023-07-18T09:42:21.007Z,2.20
2023-07-18T09:44:52.717Z,2.75
2023-07-18T09:47:21.930Z,1.55
2023-07-18T09:49:53.745Z,2.83
2023-07-18T09:52:27.718Z,1.15
2023-07-18T09:54:55.795Z,3.90
2023-07-18T09:57:23.939Z,2.05
2023-07-18T09:59:52.153Z,3.33
2023-07-18T10:02:19.960Z,4.95
2023-07-18T10:04:49.631Z,2.25
2023-07-18T10:07:17.874Z,2.13
2023-07-18T10:09:45.732Z,1.75
2023-07-18T10:12:13.573Z,2.20
2023-07-18T10:14:51.160Z,2.70
2023-07-18T10:17:31.106Z,3.22
2023-07-18T10:19:59.238Z,1.48
2023-07-18T10:22:32.033Z,1.55
2023-07-18T10:25:08.084Z,3.58
2023-07-18T10:30:12.509Z,3.05
2023-07-18T10:32:40.685Z,4.88
2023-07-18T10:35:12.376Z,1.50
2023-07-18T10:37:44.817Z,2.25
2023-07-18T10:40:38.649Z,3.47
2023-07-18T10:43:11.071Z,4.45
2023-07-18T10:45:40.098Z,4.78
2023-07-18T10:48:26.146Z,3.42
2023-07-18T10:50:54.047Z,1.50
2023-07-18T10:53:24.380Z,2.55
2023-07-18T10:55:53.414Z,2.05
2023-07-18T10:58:22.414Z,3.15
2023-07-18T11:00:51.181Z,1.63
2023-07-18T11:03:35.958Z,3.50
2023-07-18T11:06:08.894Z,4.28
2023-07-18T11:08:37.213Z,4.07
2023-07-18T11:11:06.896Z,6.90
2023-07-18T11:13:36.091Z,2.80
2023-07-18T11:16:07.124Z,1.90
2023-07-18T11:18:39.804Z,3.53
2023-07-18T11:21:08.498Z,4.57
2023-07-18T11:23:37.707Z,4.53
2023-07-18T11:26:19.792Z,2.80
2023-07-18T11:28:51.096Z,2.55
2023-07-18T11:31:38.887Z,2.90
2023-07-18T11:34:08.567Z,2.95
2023-07-18T11:36:37.975Z,2.20
2023-07-18T11:39:21.000Z,2.47
2023-07-18T11:41:49.629Z,5.30
2023-07-18T11:44:25.827Z,3.03
2023-07-18T11:46:54.937Z,3.65
2023-07-18T11:49:36.702Z,3.97
2023-07-18T11:52:06.348Z,4.05
2023-07-18T11:54:37.551Z,1.70
2023-07-18T11:57:06.287Z,3.17
2023-07-18T11:59:34.464Z,3.15
2023-07-18T12:02:02.985Z,2.53
2023-07-18T12:04:30.934Z,2.25
2023-07-18T12:06:59.067Z,3.53
2023-07-18T12:09:27.347Z,4.80
2023-07-18T12:11:55.724Z,6.50
2023-07-18T12:14:23.787Z,2.47
2023-07-18T12:16:51.960Z,4.95
2023-07-18T12:19:21.622Z,3.90
2023-07-18T12:21:50.496Z,3.17
2023-07-18T12:24:19.600Z,5.63
2023-07-18T12:26:47.480Z,2.53
2023-07-18T12:29:16.284Z,4.95
2023-07-18T12:31:50.652Z,1.77
2023-07-18T12:34:18.946Z,3.63
2023-07-18T12:36:46.783Z,3.08
2023-07-18T12:39:18.979Z,2.97
2023-07-18T12:41:47.062Z,3.15
2023-07-18T12:44:23.314Z,1.88
2023-07-18T12:46:53.595Z,3.25
2023-07-18T12:51:54.427Z,6.45
2023-07-18T12:54:22.252Z,2.72
2023-07-18T12:56:50.214Z,2.45
2023-07-18T12:59:18.067Z,6.47
2023-07-18T13:01:46.224Z,2.92
2023-07-18T13:04:14.143Z,4.97
2023-07-18T13:06:41.925Z,4.13
2023-07-18T13:09:09.698Z,4.07
2023-07-18T13:11:37.568Z,7.28
2023-07-18T13:14:05.492Z,4.18
2023-07-18T13:16:33.336Z,5.20
2023-07-18T13:19:01.605Z,4.55
2023-07-18T13:21:29.747Z,4.22
2023-07-18T13:23:58.197Z,5.90
2023-07-18T13:26:26.060Z,5.50
2023-07-18T13:28:54.098Z,3.72
2023-07-18T13:31:22.371Z,3.03
2023-07-18T13:33:50.259Z,2.05
2023-07-18T13:36:18.554Z,4.82
2023-07-18T13:38:46.904Z,6.20
2023-07-18T13:41:16.000Z,3.35
2023-07-18T13:43:44.312Z,4.78
2023-07-18T13:46:13.922Z,4.25
2023-07-18T13:48:41.859Z,2.88
2023-07-18T13:51:10.378Z,4.40
2023-07-18T13:53:38.946Z,1.55
2023-07-18T13:56:06.872Z,4.47
2023-07-18T13:58:34.852Z,2.78
2023-07-18T14:01:03.996Z,4.40
2023-07-18T14:03:35.391Z,4.22
2023-07-18T14:06:05.474Z,4.00
2023-07-18T14:08:33.577Z,4.00
2023-07-18T14:11:01.479Z,2.85
2023-07-18T14:13:29.367Z,5.75
2023-07-18T14:15:57.223Z,1.50
2023-07-18T14:18:25.022Z,4.22
2023-07-18T14:20:52.918Z,2.70
2023-07-18T14:23:20.756Z,5.60
2023-07-18T14:25:49.217Z,2.97
2023-07-18T14:28:17.521Z,2.45
2023-07-18T14:30:45.600Z,1.95
2023-07-18T14:33:15.293Z,4.25
2023-07-18T14:35:44.384Z,2.63
2023-07-18T14:38:12.378Z,1.55
2023-07-18T14:40:40.876Z,2.55
2023-07-18T14:43:10.025Z,3.40
2023-07-18T14:45:38.771Z,2.53
2023-07-18T14:48:08.197Z,4.63
2023-07-18T14:50:36.647Z,2.97
2023-07-18T14:53:04.469Z,5.35
2023-07-18T14:55:35.199Z,2.38
2023-07-18T14:58:03.485Z,3.75
2023-07-18T15:00:31.385Z,4.20
2023-07-18T15:02:59.386Z,4.93
2023-07-18T15:05:27.821Z,6.85
2023-07-18T15:07:55.591Z,5.63
2023-07-18T15:10:23.403Z,2.58
2023-07-18T15:12:51.324Z,4.28
2023-07-18T15:15:19.492Z,2.25
2023-07-18T15:17:47.960Z,4.45
2023-07-18T15:20:16.590Z,3.22
2023-07-18T15:22:44.865Z,3.25
2023-07-18T15:25:12.806Z,4.10
2023-07-18T15:27:41.479Z,2.70
2023-07-18T15:30:10.833Z,3.72
2023-07-18T15:32:45.187Z,4.45
2023-07-18T15:37:42.618Z,3.10
2023-07-18T15:40:11.485Z,5.18
2023-07-18T15:42:40.770Z,5.75
2023-07-18T15:45:09.281Z,3.17
2023-07-18T15:47:37.340Z,3.35
2023-07-18T15:50:06.239Z,2.58
2023-07-18T15:52:34.344Z,2.85
2023-07-18T15:55:02.421Z,3.28
2023-07-18T15:57:30.729Z,7.80
2023-07-18T15:59:59.201Z,6.22
2023-07-18T16:02:27.486Z,3.20
2023-07-18T16:04:55.625Z,5.28
2023-07-18T16:07:23.625Z,5.05
2023-07-18T16:09:52.517Z,6.43
2023-07-18T16:12:20.856Z,2.70
2023-07-18T16:14:49.142Z,3.47
2023-07-18T16:17:17.069Z,5.28
2023-07-18T16:19:48.155Z,4.13
2023-07-18T16:22:19.549Z,3.13
2023-07-18T16:24:47.535Z,4.15
2023-07-18T16:27:16.176Z,3.40
2023-07-18T16:29:45.295Z,3.08
2023-07-18T16:32:13.265Z,4.28
2023-07-18T16:34:41.114Z,2.92
2023-07-18T16:37:09.423Z,2.72
2023-07-18T16:39:37.266Z,6.15
2023-07-18T16:42:18.028Z,3.38
2023-07-18T16:44:50.308Z,5.43
2023-07-18T16:47:18.411Z,6.68
2023-07-18T16:49:46.474Z,3.95
2023-07-18T16:52:14.401Z,5.22
2023-07-18T16:54:42.390Z,4.22
2023-07-18T16:57:11.327Z,8.82
2023-07-18T16:59:39.130Z,6.25
2023-07-18T17:02:07.493Z,3.63
2023-07-18T17:04:35.422Z,7.13
2023-07-18T17:07:03.350Z,4.57
2023-07-18T17:09:31.159Z,3.88
2023-07-18T17:11:58.927Z,3.60
2023-07-18T17:14:26.778Z,7.10
2023-07-18T17:16:54.743Z,4.38
2023-07-18T17:19:22.560Z,3.92
2023-07-18T17:21:50.433Z,2.35
2023-07-18T17:24:18.363Z,4.97
2023-07-18T17:26:46.981Z,3.90
2023-07-18T17:29:14.862Z,5.05
2023-07-18T17:31:43.275Z,2.25
2023-07-18T17:34:11.034Z,3.38
2023-07-18T17:36:38.967Z,2.38
2023-07-18T17:39:08.892Z,2.58
2023-07-18T17:41:37.039Z,5.80
2023-07-18T17:44:05.094Z,6.20
2023-07-18T17:46:32.958Z,4.65
2023-07-18T17:49:00.745Z,5.55
2023-07-18T17:51:31.699Z,2.35
2023-07-18T17:53:59.616Z,2.83
2023-07-18T17:56:27.465Z,4.72
2023-07-18T17:58:55.239Z,5.50
2023-07-18T18:01:23.359Z,3.80
2023-07-18T18:03:54.709Z,3.60
2023-07-18T18:06:22.627Z,5.75
2023-07-18T18:08:51.687Z,4.75
2023-07-18T18:11:19.763Z,5.18
2023-07-18T18:13:47.840Z,4.13
2023-07-18T18:16:16.869Z,5.60
2023-07-18T18:18:46.053Z,3.22
2023-07-18T18:21:13.867Z,5.93
2023-07-18T18:23:41.861Z,6.32
2023-07-18T18:26:12.665Z,4.28
2023-07-18T18:28:40.584Z,4.97
2023-07-18T18:31:08.466Z,3.47
2023-07-18T18:33:36.358Z,4.80
2023-07-18T18:36:04.491Z,7.75
2023-07-18T18:38:32.392Z,3.90
2023-07-18T18:41:00.342Z,4.78
2023-07-18T18:43:28.071Z,2.92
2023-07-18T18:45:56.478Z,4.75
2023-07-18T18:48:24.386Z,3.70
2023-07-18T18:50:52.249Z,5.60
2023-07-18T18:53:22.194Z,9.82
2023-07-18T18:55:50.172Z,6.53
2023-07-18T18:58:19.828Z,7.78
2023-07-18T19:00:48.104Z,9.65
2023-07-18T19:03:16.136Z,7.65
2023-07-18T19:05:44.748Z,8.13
2023-07-18T19:08:12.745Z,8.60
2023-07-18T19:10:44.065Z,7.53
2023-07-18T19:15:44.916Z,6.78
2023-07-18T19:18:12.778Z,5.50
2023-07-18T19:20:40.671Z,4.95
2023-07-18T19:23:08.585Z,5.72
2023-07-18T19:25:36.440Z,3.85
2023-07-18T19:28:04.369Z,5.80
2023-07-18T19:30:32.198Z,8.70
2023-07-18T19:33:00.184Z,4.68
2023-07-18T19:35:28.152Z,6.53
2023-07-18T19:37:56.015Z,4.68
2023-07-18T19:40:24.412Z,8.82
2023-07-18T19:42:52.208Z,4.90
2023-07-18T19:45:20.094Z,5.82
2023-07-18T19:47:48.036Z,9.23
2023-07-18T19:50:15.879Z,5.53
2023-07-18T19:52:43.821Z,6.97
2023-07-18T19:55:11.689Z,8.27
2023-07-18T19:57:39.607Z,8.75
2023-07-18T20:00:08.172Z,8.48
2023-07-18T20:02:36.048Z,6.72
2023-07-18T20:05:04.235Z,11.23
2023-07-18T20:07:32.387Z,10.45
2023-07-18T20:10:00.781Z,8.10
2023-07-18T20:12:28.583Z,8.30
2023-07-18T20:14:56.432Z,8.45
2023-07-18T20:17:24.455Z,8.90
2023-07-18T20:19:52.473Z,9.35
2023-07-18T20:22:23.873Z,6.13
2023-07-18T20:24:51.956Z,11.10
2023-07-18T20:27:20.140Z,6.10
2023-07-18T20:29:48.013Z,7.57
2023-07-18T20:32:15.828Z,7.40
2023-07-18T20:34:46.314Z,10.00
2023-07-18T20:37:14.449Z,9.45
2023-07-18T20:39:42.289Z,9.10
2023-07-18T20:42:10.081Z,10.48
2023-07-18T20:44:38.189Z,10.80
2023-07-18T20:47:06.675Z,9.93
2023-07-18T20:49:34.524Z,6.85
2023-07-18T20:52:02.277Z,8.38
2023-07-18T20:54:33.673Z,7.78
2023-07-18T20:57:01.484Z,7.82
2023-07-18T20:59:31.997Z,8.95
2023-07-18T21:01:59.896Z,7.68
2023-07-18T21:04:27.750Z,9.98
2023-07-18T21:06:55.623Z,7.78
2023-07-18T21:09:23.441Z,11.35
2023-07-18T21:11:51.225Z,7.03
2023-07-18T21:14:19.738Z,13.85
2023-07-18T21:16:47.507Z,10.20
2023-07-18T21:19:15.407Z,8.05
2023-07-18T21:21:43.231Z,5.30
2023-07-18T21:24:11.042Z,9.75
2023-07-18T21:26:39.000Z,6.50
2023-07-18T21:29:06.769Z,6.40
2023-07-18T21:31:34.998Z,7.32
2023-07-18T21:34:03.684Z,8.23
2023-07-18T21:36:31.673Z,6.97
2023-07-18T21:38:59.595Z,7.78
2023-07-18T21:41:31.818Z,8.02
2023-07-18T21:44:00.257Z,7.55
2023-07-18T21:46:28.398Z,4.38
2023-07-18T21:48:56.499Z,4.75
2023-07-18T21:51:24.247Z,8.82
2023-07-18T21:53:52.026Z,6.38
2023-07-18T21:56:19.837Z,9.23
2023-07-18T21:58:47.609Z,6.78
2023-07-18T22:01:15.732Z,6.82
2023-07-18T22:03:43.669Z,4.95
2023-07-18T22:06:11.469Z,9.20
2023-07-18T22:08:39.333Z,8.98
2023-07-18T22:11:07.169Z,9.35
2023-07-18T22:13:35.278Z,9.30
2023-07-18T22:16:03.117Z,8.63
2023-07-18T22:18:31.006Z,7.18
2023-07-18T22:20:58.918Z,7.45
2023-07-18T22:23:26.674Z,15.10
2023-07-18T22:26:07.984Z,6.55
2023-07-18T22:28:40.732Z,7.82
2023-07-18T22:31:08.577Z,9.27
2023-07-18T22:33:36.586Z,7.82
2023-07-18T22:36:04.462Z,8.07
2023-07-18T22:38:32.304Z,7.65
2023-07-18T22:41:00.102Z,6.95
2023-07-18T22:43:27.872Z,8.23
2023-07-18T22:45:55.649Z,7.82
2023-07-18T22:48:23.567Z,4.72
2023-07-18T22:50:54.042Z,6.40
2023-07-18T22:53:21.887Z,10.48
2023-07-18T22:55:50.238Z,7.22
2023-07-18T22:58:18.145Z,6.53
2023-07-18T23:00:46.016Z,7.20
2023-07-18T23:03:15.653Z,4.38
2023-07-18T23:05:43.594Z,11.45
2023-07-18T23:08:11.492Z,9.45
2023-07-18T23:10:39.303Z,7.93
2023-07-18T23:13:07.118Z,8.05
2023-07-18T23:15:34.884Z,6.18
2023-07-18T23:18:02.766Z,8.95
2023-07-18T23:20:30.603Z,6.25
2023-07-18T23:22:58.426Z,5.10
2023-07-18T23:25:26.341Z,7.85
2023-07-18T23:27:54.143Z,11.45
2023-07-18T23:30:22.073Z,6.75
2023-07-18T23:32:49.878Z,7.20
2023-07-18T23:35:17.823Z,8.52
2023-07-18T23:37:45.714Z,7.70
2023-07-18T23:40:13.837Z,13.05
2023-07-18T23:42:41.656Z,8.70
2023-07-18T23:45:09.966Z,10.45
2023-07-18T23:47:37.787Z,9.73
2023-07-18T23:50:06.239Z,11.32
2023-07-18T23:52:34.180Z,14.95
2023-07-18T23:55:02.019Z,9.45
2023-07-18T23:57:29.935Z,9.77
2023-07-18T23:59:57.751Z,10.23
